createdAt,value
2022-09-27T00:04:04.157Z,965.65
2022-09-27T00:16:04.716Z,965.52
2022-09-27T00:28:05.025Z,965.12
2022-09-27T00:40:05.517Z,965.23
2022-09-27T00:52:05.986Z,964.94
2022-09-27T01:04:06.408Z,964.66
2022-09-27T01:16:06.944Z,964.43
2022-09-27T01:28:07.338Z,964.25
2022-09-27T01:40:07.754Z,964.16
2022-09-27T01:52:08.250Z,964.20
2022-09-27T02:04:08.666Z,963.98
2022-09-27T02:16:09.595Z,963.71
2022-09-27T02:28:09.598Z,963.65
2022-09-27T02:40:10.088Z,963.52
2022-09-27T02:52:10.512Z,963.49
2022-09-27T03:04:10.975Z,963.54
2022-09-27T03:16:11.386Z,963.56
2022-09-27T03:28:11.864Z,963.46
2022-09-27T03:40:12.424Z,963.36
2022-09-27T03:52:12.788Z,963.24
2022-09-27T04:04:13.221Z,962.91
2022-09-27T04:16:13.687Z,962.67
2022-09-27T04:28:14.128Z,962.47
2022-09-27T04:40:14.629Z,962.37
2022-09-27T04:52:15.017Z,962.27
2022-09-27T05:04:15.543Z,962.27
2022-09-27T05:16:16.000Z,962.11
2022-09-27T05:28:16.407Z,962.06
2022-09-27T05:40:36.720Z,961.93
2022-09-27T05:52:18.332Z,961.85
2022-09-27T06:04:17.768Z,961.84
2022-09-27T06:16:18.304Z,961.67
2022-09-27T06:28:18.694Z,961.77
2022-09-27T06:40:19.193Z,961.69
2022-09-27T06:52:19.551Z,961.80
2022-09-27T07:04:20.034Z,961.76
2022-09-27T07:16:20.553Z,961.81
2022-09-27T07:28:22.151Z,961.85
2022-09-27T07:40:21.412Z,961.88
2022-09-27T07:52:21.819Z,961.87
2022-09-27T08:04:22.378Z,962.02
2022-09-27T08:16:22.803Z,962.06
2022-09-27T08:28:23.177Z,962.13
2022-09-27T08:40:23.741Z,962.14
2022-09-27T08:52:24.123Z,962.22
2022-09-27T09:04:24.592Z,962.24
2022-09-27T09:16:25.051Z,962.29
2022-09-27T09:28:25.468Z,962.30
2022-09-27T09:40:25.951Z,962.55
2022-09-27T09:52:26.377Z,962.65
2022-09-27T10:04:26.843Z,962.77
2022-09-27T10:16:27.296Z,962.96
2022-09-27T10:28:27.748Z,962.84
2022-09-27T10:40:28.306Z,962.79
2022-09-27T10:52:28.669Z,962.64
2022-09-27T11:04:29.157Z,962.56
2022-09-27T11:16:29.585Z,962.20
2022-09-27T11:28:30.293Z,961.74
2022-09-27T11:40:30.515Z,962.29
2022-09-27T11:52:30.904Z,962.17
2022-09-27T12:04:31.384Z,962.24
2022-09-27T12:16:31.858Z,962.42
2022-09-27T12:28:32.294Z,962.41
2022-09-27T12:40:32.792Z,962.34
2022-09-27T12:52:33.184Z,962.53
2022-09-27T13:04:33.671Z,962.81
2022-09-27T13:16:34.187Z,962.84
2022-09-27T13:28:34.529Z,963.03
2022-09-27T13:40:35.058Z,962.79
2022-09-27T13:52:35.469Z,962.95
2022-09-27T14:04:35.915Z,962.86
2022-09-27T14:16:36.474Z,963.09
2022-09-27T14:28:36.822Z,963.41
2022-09-27T14:40:37.393Z,963.35
2022-09-27T14:52:37.727Z,963.51
2022-09-27T15:04:38.321Z,963.55
2022-09-27T15:16:39.001Z,963.54
2022-09-27T15:28:39.272Z,963.41
2022-09-27T15:40:39.591Z,963.53
2022-09-27T15:52:39.968Z,963.83
2022-09-27T16:04:40.432Z,964.03
2022-09-27T16:16:40.994Z,964.02
2022-09-27T16:28:41.371Z,964.16
2022-09-27T16:40:41.874Z,964.42
2022-09-27T16:52:42.601Z,964.36
2022-09-27T17:04:42.756Z,964.07
2022-09-27T17:16:43.238Z,964.26
2022-09-27T17:28:43.630Z,964.45
2022-09-27T17:40:44.132Z,964.39
2022-09-27T17:52:44.889Z,964.81
2022-09-27T18:04:44.986Z,965.04
2022-09-27T18:16:45.873Z,965.09
2022-09-27T18:28:45.877Z,965.12
2022-09-27T18:40:56.210Z,964.99
2022-09-27T18:52:46.811Z,964.95
2022-09-27T19:04:47.227Z,965.19
2022-09-27T19:16:47.686Z,965.30
2022-09-27T19:28:48.188Z,965.32
2022-09-27T19:40:48.744Z,965.41
2022-09-27T19:52:49.094Z,965.58
2022-09-27T20:04:49.509Z,965.56
2022-09-27T20:16:49.974Z,965.49
2022-09-27T20:28:50.434Z,965.58
2022-09-27T20:40:50.905Z,965.53
2022-09-27T20:52:51.342Z,965.63
2022-09-27T21:04:51.798Z,965.73
2022-09-27T21:16:52.246Z,965.65
2022-09-27T21:28:52.663Z,965.66
2022-09-27T21:40:53.236Z,965.46
2022-09-27T21:52:57.932Z,965.44
2022-09-27T22:04:54.023Z,965.70
2022-09-27T22:16:54.506Z,965.65
2022-09-27T22:28:54.929Z,965.56
2022-09-27T22:40:55.455Z,965.46
2022-09-27T22:52:55.840Z,965.70
2022-09-27T23:04:56.329Z,965.74
2022-09-27T23:16:56.748Z,965.79
2022-09-27T23:28:57.250Z,965.73
2022-09-27T23:40:57.745Z,965.83
2022-09-27T23:52:58.127Z,965.61
